Terminal Aerodrome Forecast
Issued by NWS Wakefield, VA

Home | Current Version | Previous Version | Text Only | Print | Product List | Glossary On
Versions: 1 2 3 4 5 6 7 8 9 10 11 12 13 14 15 16 17 18 19 20 21
335
FTUS41 KAKQ 030537
TAFECG
TAF
KECG 030537Z 0306/0406 20010KT P6SM BKN120
     FM031000 22010KT P6SM -SHRA OVC025
     FM031400 23012KT 5SM -SHRA OVC015
     FM031800 23011KT P6SM BKN025
     FM032100 23009KT P6SM BKN050=

USA.gov is the U.S. government's official web portal to all federal, state and local government web resources and services.